KPKB

Mid-Ohio Valley Regional Airport

Parkersburg, West Virginia, USA
METAR KPKB 211353Z 11006KT 10SM FEW045 22/16 A3020 RMK AO2 SLP221 T02220161
Observed Flight Rules
May-21 @ 13:53 UTC (60 minutes ago) Visual Flight Rules
Wind Visibility Clouds
110° at 6 knots 10 miles
  • Few at 4,500' AGL
Temperatures Readings
Current 22°C / 72°F
Dewpoint 16°C / 61°F
Humidity 69%
Altimeter 30.2" Hg
Pressure 1022.1 hPa
Elevation 262
METAR KPKB 211353Z 11006KT 10SM FEW045 22/16 A3020 RMK AO2 SLP221 T02220161
Observed Flight Rules
May-21 @ 13:53 UTC
(60 minutes ago)
VFR
Wind Visibility
110° at 6 knots 10 miles
Clouds
  • Few at 4,500' AGL
Temperature Dewpoint
22°C / 72°F 16°C / 61°F
Humidity Altimeter Pressure
69% 30.2" Hg 1022.1 hPa